sensor_id;sensor_type;location;lat;lon;timestamp;P1;P2;P0
38451;PMS5003;24231;52.514;13.438;2023-07-20T00:01:53;4;4;
38451;PMS5003;24231;52.514;13.438;2023-07-20T00:04:20;5;5;
38451;PMS5003;24231;52.514;13.438;2023-07-20T00:06:47;8;6;
38451;PMS5003;24231;52.514;13.438;2023-07-20T00:09:14;6;6;
38451;PMS5003;24231;52.514;13.438;2023-07-20T00:11:47;7;5;
38451;PMS5003;24231;52.514;13.438;2023-07-20T00:14:15;4;4;
38451;PMS5003;24231;52.514;13.438;2023-07-20T00:16:43;5;5;
38451;PMS5003;24231;52.514;13.438;2023-07-20T00:19:11;7;6;
38451;PMS5003;24231;52.514;13.438;2023-07-20T00:21:38;6;5;
38451;PMS5003;24231;52.514;13.438;2023-07-20T00:24:05;8;8;
38451;PMS5003;24231;52.514;13.438;2023-07-20T00:26:33;5;5;
38451;PMS5003;24231;52.514;13.438;2023-07-20T00:29:00;8;6;
38451;PMS5003;24231;52.514;13.438;2023-07-20T00:31:27;4;4;
38451;PMS5003;24231;52.514;13.438;2023-07-20T00:33:54;4;4;
38451;PMS5003;24231;52.514;13.438;2023-07-20T00:36:21;4;4;
38451;PMS5003;24231;52.514;13.438;2023-07-20T00:38:48;5;3;
38451;PMS5003;24231;52.514;13.438;2023-07-20T00:41:15;5;4;
38451;PMS5003;24231;52.514;13.438;2023-07-20T00:43:42;9;6;
38451;PMS5003;24231;52.514;13.438;2023-07-20T00:46:09;4;4;
38451;PMS5003;24231;52.514;13.438;2023-07-20T00:48:37;5;5;
38451;PMS5003;24231;52.514;13.438;2023-07-20T00:51:05;5;5;
38451;PMS5003;24231;52.514;13.438;2023-07-20T00:53:32;4;4;
38451;PMS5003;24231;52.514;13.438;2023-07-20T00:55:59;5;5;
38451;PMS5003;24231;52.514;13.438;2023-07-20T00:58:27;6;5;
38451;PMS5003;24231;52.514;13.438;2023-07-20T01:00:54;4;4;
38451;PMS5003;24231;52.514;13.438;2023-07-20T01:03:21;6;6;
38451;PMS5003;24231;52.514;13.438;2023-07-20T01:05:54;5;3;
38451;PMS5003;24231;52.514;13.438;2023-07-20T01:08:32;5;5;
38451;PMS5003;24231;52.514;13.438;2023-07-20T01:11:08;4;4;
38451;PMS5003;24231;52.514;13.438;2023-07-20T01:13:39;8;7;
38451;PMS5003;24231;52.514;13.438;2023-07-20T01:16:06;4;4;
38451;PMS5003;24231;52.514;13.438;2023-07-20T01:18:33;7;6;
38451;PMS5003;24231;52.514;13.438;2023-07-20T01:21:01;4;4;
38451;PMS5003;24231;52.514;13.438;2023-07-20T01:23:46;7;5;
38451;PMS5003;24231;52.514;13.438;2023-07-20T01:26:37;5;5;
38451;PMS5003;24231;52.514;13.438;2023-07-20T01:29:28;5;5;
38451;PMS5003;24231;52.514;13.438;2023-07-20T01:32:16;4;4;
38451;PMS5003;24231;52.514;13.438;2023-07-20T01:34:45;5;4;
38451;PMS5003;24231;52.514;13.438;2023-07-20T01:37:15;9;6;
38451;PMS5003;24231;52.514;13.438;2023-07-20T01:39:44;3;3;
38451;PMS5003;24231;52.514;13.438;2023-07-20T01:42:11;6;6;
38451;PMS5003;24231;52.514;13.438;2023-07-20T01:44:39;6;5;
38451;PMS5003;24231;52.514;13.438;2023-07-20T01:47:06;6;6;
38451;PMS5003;24231;52.514;13.438;2023-07-20T01:49:33;9;8;
38451;PMS5003;24231;52.514;13.438;2023-07-20T01:52:01;8;5;
38451;PMS5003;24231;52.514;13.438;2023-07-20T01:54:28;8;7;
38451;PMS5003;24231;52.514;13.438;2023-07-20T01:56:54;6;5;
38451;PMS5003;24231;52.514;13.438;2023-07-20T01:59:22;6;6;
38451;PMS5003;24231;52.514;13.438;2023-07-20T02:01:49;6;6;
38451;PMS5003;24231;52.514;13.438;2023-07-20T02:04:16;6;6;
38451;PMS5003;24231;52.514;13.438;2023-07-20T02:06:42;6;6;
38451;PMS5003;24231;52.514;13.438;2023-07-20T02:09:09;5;5;
38451;PMS5003;24231;52.514;13.438;2023-07-20T02:11:36;5;5;
38451;PMS5003;24231;52.514;13.438;2023-07-20T02:14:04;8;7;
38451;PMS5003;24231;52.514;13.438;2023-07-20T02:16:31;5;5;
38451;PMS5003;24231;52.514;13.438;2023-07-20T02:18:58;6;5;
38451;PMS5003;24231;52.514;13.438;2023-07-20T02:21:25;7;6;
38451;PMS5003;24231;52.514;13.438;2023-07-20T02:23:51;4;4;
38451;PMS5003;24231;52.514;13.438;2023-07-20T02:26:19;6;6;
38451;PMS5003;24231;52.514;13.438;2023-07-20T02:28:46;9;7;
38451;PMS5003;24231;52.514;13.438;2023-07-20T02:31:13;6;6;
38451;PMS5003;24231;52.514;13.438;2023-07-20T02:33:39;7;7;
38451;PMS5003;24231;52.514;13.438;2023-07-20T02:36:06;8;8;
38451;PMS5003;24231;52.514;13.438;2023-07-20T02:38:38;7;6;
38451;PMS5003;24231;52.514;13.438;2023-07-20T02:41:05;10;10;
38451;PMS5003;24231;52.514;13.438;2023-07-20T02:43:32;11;9;
38451;PMS5003;24231;52.514;13.438;2023-07-20T02:45:59;5;5;
38451;PMS5003;24231;52.514;13.438;2023-07-20T02:48:26;7;6;
38451;PMS5003;24231;52.514;13.438;2023-07-20T02:50:53;9;8;
38451;PMS5003;24231;52.514;13.438;2023-07-20T02:53:21;10;9;
38451;PMS5003;24231;52.514;13.438;2023-07-20T02:55:48;11;8;
38451;PMS5003;24231;52.514;13.438;2023-07-20T02:58:15;10;10;
38451;PMS5003;24231;52.514;13.438;2023-07-20T03:00:43;13;12;
38451;PMS5003;24231;52.514;13.438;2023-07-20T03:03:10;9;9;
38451;PMS5003;24231;52.514;13.438;2023-07-20T03:05:40;10;9;
38451;PMS5003;24231;52.514;13.438;2023-07-20T03:08:07;6;6;
38451;PMS5003;24231;52.514;13.438;2023-07-20T03:10:39;14;11;
38451;PMS5003;24231;52.514;13.438;2023-07-20T03:13:06;11;10;
38451;PMS5003;24231;52.514;13.438;2023-07-20T03:15:34;11;10;
38451;PMS5003;24231;52.514;13.438;2023-07-20T03:18:01;12;6;
38451;PMS5003;24231;52.514;13.438;2023-07-20T03:20:29;8;7;
38451;PMS5003;24231;52.514;13.438;2023-07-20T03:22:57;9;8;
38451;PMS5003;24231;52.514;13.438;2023-07-20T03:25:24;6;6;
38451;PMS5003;24231;52.514;13.438;2023-07-20T03:27:51;12;10;
38451;PMS5003;24231;52.514;13.438;2023-07-20T03:30:19;7;6;
38451;PMS5003;24231;52.514;13.438;2023-07-20T03:32:46;8;7;
38451;PMS5003;24231;52.514;13.438;2023-07-20T03:35:12;10;9;
38451;PMS5003;24231;52.514;13.438;2023-07-20T03:37:39;9;9;
38451;PMS5003;24231;52.514;13.438;2023-07-20T03:40:07;11;11;
38451;PMS5003;24231;52.514;13.438;2023-07-20T03:42:35;8;8;
38451;PMS5003;24231;52.514;13.438;2023-07-20T03:45:02;9;9;
38451;PMS5003;24231;52.514;13.438;2023-07-20T03:47:30;11;10;
38451;PMS5003;24231;52.514;13.438;2023-07-20T03:49:57;10;10;
38451;PMS5003;24231;52.514;13.438;2023-07-20T03:52:24;8;7;
38451;PMS5003;24231;52.514;13.438;2023-07-20T03:54:51;9;7;
38451;PMS5003;24231;52.514;13.438;2023-07-20T03:57:18;10;10;
38451;PMS5003;24231;52.514;13.438;2023-07-20T03:59:45;8;6;
38451;PMS5003;24231;52.514;13.438;2023-07-20T04:02:12;10;10;
38451;PMS5003;24231;52.514;13.438;2023-07-20T04:04:40;9;7;
38451;PMS5003;24231;52.514;13.438;2023-07-20T04:07:07;10;8;
38451;PMS5003;24231;52.514;13.438;2023-07-20T04:09:35;9;8;
38451;PMS5003;24231;52.514;13.438;2023-07-20T04:12:02;11;9;
38451;PMS5003;24231;52.514;13.438;2023-07-20T04:14:29;9;7;
38451;PMS5003;24231;52.514;13.438;2023-07-20T04:16:56;8;7;
38451;PMS5003;24231;52.514;13.438;2023-07-20T04:19:23;9;9;
38451;PMS5003;24231;52.514;13.438;2023-07-20T04:21:51;10;8;
38451;PMS5003;24231;52.514;13.438;2023-07-20T04:24:17;13;12;
38451;PMS5003;24231;52.514;13.438;2023-07-20T04:26:45;12;10;
38451;PMS5003;24231;52.514;13.438;2023-07-20T04:29:12;9;9;
38451;PMS5003;24231;52.514;13.438;2023-07-20T04:31:39;8;6;
38451;PMS5003;24231;52.514;13.438;2023-07-20T04:34:06;9;9;
38451;PMS5003;24231;52.514;13.438;2023-07-20T04:36:33;6;6;
38451;PMS5003;24231;52.514;13.438;2023-07-20T04:39:00;8;7;
38451;PMS5003;24231;52.514;13.438;2023-07-20T04:41:27;8;8;
38451;PMS5003;24231;52.514;13.438;2023-07-20T04:43:54;8;6;
38451;PMS5003;24231;52.514;13.438;2023-07-20T04:46:21;7;6;
38451;PMS5003;24231;52.514;13.438;2023-07-20T04:48:48;11;7;
38451;PMS5003;24231;52.514;13.438;2023-07-20T04:51:15;6;6;
38451;PMS5003;24231;52.514;13.438;2023-07-20T04:53:42;11;8;
38451;PMS5003;24231;52.514;13.438;2023-07-20T04:56:09;13;9;
38451;PMS5003;24231;52.514;13.438;2023-07-20T04:58:36;8;5;
38451;PMS5003;24231;52.514;13.438;2023-07-20T05:01:03;5;5;
38451;PMS5003;24231;52.514;13.438;2023-07-20T05:03:30;10;8;
38451;PMS5003;24231;52.514;13.438;2023-07-20T05:05:57;12;9;
38451;PMS5003;24231;52.514;13.438;2023-07-20T05:08:24;10;8;
38451;PMS5003;24231;52.514;13.438;2023-07-20T05:10:51;9;7;
38451;PMS5003;24231;52.514;13.438;2023-07-20T05:13:18;10;10;
38451;PMS5003;24231;52.514;13.438;2023-07-20T05:15:45;5;5;
38451;PMS5003;24231;52.514;13.438;2023-07-20T05:18:13;11;10;
38451;PMS5003;24231;52.514;13.438;2023-07-20T05:20:39;7;6;
38451;PMS5003;24231;52.514;13.438;2023-07-20T05:23:06;5;5;
38451;PMS5003;24231;52.514;13.438;2023-07-20T05:25:33;4;4;
38451;PMS5003;24231;52.514;13.438;2023-07-20T05:28:00;3;3;
38451;PMS5003;24231;52.514;13.438;2023-07-20T05:30:27;7;6;
38451;PMS5003;24231;52.514;13.438;2023-07-20T05:32:54;5;3;
38451;PMS5003;24231;52.514;13.438;2023-07-20T05:35:21;5;4;
38451;PMS5003;24231;52.514;13.438;2023-07-20T05:37:48;5;5;
38451;PMS5003;24231;52.514;13.438;2023-07-20T05:40:15;6;5;
38451;PMS5003;24231;52.514;13.438;2023-07-20T05:42:42;3;2;
38451;PMS5003;24231;52.514;13.438;2023-07-20T05:45:09;5;4;
38451;PMS5003;24231;52.514;13.438;2023-07-20T05:47:37;5;5;
38451;PMS5003;24231;52.514;13.438;2023-07-20T05:50:04;6;4;
38451;PMS5003;24231;52.514;13.438;2023-07-20T05:52:32;6;6;
38451;PMS5003;24231;52.514;13.438;2023-07-20T05:54:59;5;3;
38451;PMS5003;24231;52.514;13.438;2023-07-20T05:57:26;7;5;
38451;PMS5003;24231;52.514;13.438;2023-07-20T05:59:53;6;6;
38451;PMS5003;24231;52.514;13.438;2023-07-20T06:02:20;3;3;
38451;PMS5003;24231;52.514;13.438;2023-07-20T06:04:47;6;6;
38451;PMS5003;24231;52.514;13.438;2023-07-20T06:07:14;4;4;
38451;PMS5003;24231;52.514;13.438;2023-07-20T06:09:41;6;6;
38451;PMS5003;24231;52.514;13.438;2023-07-20T06:12:08;6;4;
38451;PMS5003;24231;52.514;13.438;2023-07-20T06:14:35;9;9;
38451;PMS5003;24231;52.514;13.438;2023-07-20T06:17:02;11;6;
38451;PMS5003;24231;52.514;13.438;2023-07-20T06:19:29;8;5;
38451;PMS5003;24231;52.514;13.438;2023-07-20T06:21:55;6;6;
38451;PMS5003;24231;52.514;13.438;2023-07-20T06:24:23;7;7;
38451;PMS5003;24231;52.514;13.438;2023-07-20T06:26:50;8;6;
38451;PMS5003;24231;52.514;13.438;2023-07-20T06:29:17;6;6;
38451;PMS5003;24231;52.514;13.438;2023-07-20T06:31:44;4;4;
38451;PMS5003;24231;52.514;13.438;2023-07-20T06:34:11;4;4;
38451;PMS5003;24231;52.514;13.438;2023-07-20T06:36:38;4;4;
38451;PMS5003;24231;52.514;13.438;2023-07-20T06:39:05;4;4;
38451;PMS5003;24231;52.514;13.438;2023-07-20T06:41:32;7;5;
38451;PMS5003;24231;52.514;13.438;2023-07-20T06:43:59;4;4;
38451;PMS5003;24231;52.514;13.438;2023-07-20T06:46:26;5;5;
38451;PMS5003;24231;52.514;13.438;2023-07-20T06:48:53;4;2;
38451;PMS5003;24231;52.514;13.438;2023-07-20T06:51:20;3;3;
38451;PMS5003;24231;52.514;13.438;2023-07-20T06:53:48;5;4;
38451;PMS5003;24231;52.514;13.438;2023-07-20T06:56:15;6;4;
38451;PMS5003;24231;52.514;13.438;2023-07-20T06:58:43;6;3;
38451;PMS5003;24231;52.514;13.438;2023-07-20T07:01:11;3;3;
38451;PMS5003;24231;52.514;13.438;2023-07-20T07:03:38;2;2;
38451;PMS5003;24231;52.514;13.438;2023-07-20T07:06:04;5;4;
38451;PMS5003;24231;52.514;13.438;2023-07-20T07:08:31;2;2;
38451;PMS5003;24231;52.514;13.438;2023-07-20T07:10:58;2;2;
38451;PMS5003;24231;52.514;13.438;2023-07-20T07:13:25;2;2;
38451;PMS5003;24231;52.514;13.438;2023-07-20T07:15:52;2;2;
38451;PMS5003;24231;52.514;13.438;2023-07-20T07:18:19;2;2;
38451;PMS5003;24231;52.514;13.438;2023-07-20T07:20:50;3;3;
38451;PMS5003;24231;52.514;13.438;2023-07-20T07:23:17;3;3;
38451;PMS5003;24231;52.514;13.438;2023-07-20T07:25:44;3;3;
38451;PMS5003;24231;52.514;13.438;2023-07-20T07:28:12;1;1;
38451;PMS5003;24231;52.514;13.438;2023-07-20T07:30:40;2;2;
38451;PMS5003;24231;52.514;13.438;2023-07-20T07:33:07;1;1;
38451;PMS5003;24231;52.514;13.438;2023-07-20T07:35:34;1;1;
38451;PMS5003;24231;52.514;13.438;2023-07-20T07:38:02;1;1;
38451;PMS5003;24231;52.514;13.438;2023-07-20T07:40:28;0;0;
38451;PMS5003;24231;52.514;13.438;2023-07-20T07:42:55;2;2;
38451;PMS5003;24231;52.514;13.438;2023-07-20T07:45:22;0;0;
38451;PMS5003;24231;52.514;13.438;2023-07-20T07:47:49;1;1;
38451;PMS5003;24231;52.514;13.438;2023-07-20T07:50:16;2;1;
38451;PMS5003;24231;52.514;13.438;2023-07-20T07:52:43;1;1;
38451;PMS5003;24231;52.514;13.438;2023-07-20T07:55:09;3;3;
38451;PMS5003;24231;52.514;13.438;2023-07-20T07:57:36;5;4;
38451;PMS5003;24231;52.514;13.438;2023-07-20T08:00:03;1;1;
38451;PMS5003;24231;52.514;13.438;2023-07-20T08:02:32;0;0;
38451;PMS5003;24231;52.514;13.438;2023-07-20T08:04:58;3;2;
38451;PMS5003;24231;52.514;13.438;2023-07-20T08:07:25;0;0;
38451;PMS5003;24231;52.514;13.438;2023-07-20T08:09:52;0;0;
38451;PMS5003;24231;52.514;13.438;2023-07-20T08:12:24;0;0;
38451;PMS5003;24231;52.514;13.438;2023-07-20T08:14:51;1;1;
38451;PMS5003;24231;52.514;13.438;2023-07-20T08:17:17;1;1;
38451;PMS5003;24231;52.514;13.438;2023-07-20T08:19:45;5;3;
38451;PMS5003;24231;52.514;13.438;2023-07-20T08:22:13;3;1;
38451;PMS5003;24231;52.514;13.438;2023-07-20T08:24:40;3;3;
38451;PMS5003;24231;52.514;13.438;2023-07-20T08:27:07;0;0;
38451;PMS5003;24231;52.514;13.438;2023-07-20T08:29:35;2;0;
38451;PMS5003;24231;52.514;13.438;2023-07-20T08:32:02;1;1;
38451;PMS5003;24231;52.514;13.438;2023-07-20T08:34:29;2;1;
38451;PMS5003;24231;52.514;13.438;2023-07-20T08:36:57;1;1;
38451;PMS5003;24231;52.514;13.438;2023-07-20T08:39:25;0;0;
38451;PMS5003;24231;52.514;13.438;2023-07-20T08:41:52;0;0;
38451;PMS5003;24231;52.514;13.438;2023-07-20T08:44:21;1;1;
38451;PMS5003;24231;52.514;13.438;2023-07-20T08:46:49;0;0;
38451;PMS5003;24231;52.514;13.438;2023-07-20T08:49:17;1;1;
38451;PMS5003;24231;52.514;13.438;2023-07-20T08:51:46;0;0;
38451;PMS5003;24231;52.514;13.438;2023-07-20T08:54:14;0;0;
38451;PMS5003;24231;52.514;13.438;2023-07-20T08:56:43;0;0;
38451;PMS5003;24231;52.514;13.438;2023-07-20T08:59:12;1;0;
38451;PMS5003;24231;52.514;13.438;2023-07-20T09:01:42;0;0;
38451;PMS5003;24231;52.514;13.438;2023-07-20T09:04:11;0;0;
38451;PMS5003;24231;52.514;13.438;2023-07-20T09:06:38;0;0;
38451;PMS5003;24231;52.514;13.438;2023-07-20T09:09:05;0;0;
38451;PMS5003;24231;52.514;13.438;2023-07-20T09:11:32;0;0;
38451;PMS5003;24231;52.514;13.438;2023-07-20T09:14:03;0;0;
38451;PMS5003;24231;52.514;13.438;2023-07-20T09:16:31;2;0;
38451;PMS5003;24231;52.514;13.438;2023-07-20T09:18:59;0;0;
38451;PMS5003;24231;52.514;13.438;2023-07-20T09:21:28;0;0;
38451;PMS5003;24231;52.514;13.438;2023-07-20T09:23:56;0;0;
38451;PMS5003;24231;52.514;13.438;2023-07-20T09:26:24;0;0;
38451;PMS5003;24231;52.514;13.438;2023-07-20T09:28:52;0;0;
38451;PMS5003;24231;52.514;13.438;2023-07-20T09:31:20;0;0;
38451;PMS5003;24231;52.514;13.438;2023-07-20T09:33:48;0;0;
38451;PMS5003;24231;52.514;13.438;2023-07-20T09:36:18;1;1;
38451;PMS5003;24231;52.514;13.438;2023-07-20T09:38:45;0;0;
38451;PMS5003;24231;52.514;13.438;2023-07-20T09:41:13;2;2;
38451;PMS5003;24231;52.514;13.438;2023-07-20T09:43:41;0;0;
38451;PMS5003;24231;52.514;13.438;2023-07-20T09:46:08;2;1;
38451;PMS5003;24231;52.514;13.438;2023-07-20T09:48:36;1;1;
38451;PMS5003;24231;52.514;13.438;2023-07-20T09:51:03;1;1;
38451;PMS5003;24231;52.514;13.438;2023-07-20T09:53:33;0;0;
38451;PMS5003;24231;52.514;13.438;2023-07-20T09:56:00;0;0;
38451;PMS5003;24231;52.514;13.438;2023-07-20T09:58:29;1;1;
38451;PMS5003;24231;52.514;13.438;2023-07-20T10:00:59;1;1;
38451;PMS5003;24231;52.514;13.438;2023-07-20T10:03:33;1;1;
38451;PMS5003;24231;52.514;13.438;2023-07-20T10:06:05;0;0;
38451;PMS5003;24231;52.514;13.438;2023-07-20T10:08:36;0;0;
38451;PMS5003;24231;52.514;13.438;2023-07-20T10:11:07;1;1;
38451;PMS5003;24231;52.514;13.438;2023-07-20T10:13:37;0;0;
38451;PMS5003;24231;52.514;13.438;2023-07-20T10:16:07;0;0;
38451;PMS5003;24231;52.514;13.438;2023-07-20T10:18:39;3;3;
38451;PMS5003;24231;52.514;13.438;2023-07-20T10:21:12;2;2;
38451;PMS5003;24231;52.514;13.438;2023-07-20T10:23:40;4;3;
38451;PMS5003;24231;52.514;13.438;2023-07-20T10:26:08;1;1;
38451;PMS5003;24231;52.514;13.438;2023-07-20T10:28:36;1;1;
38451;PMS5003;24231;52.514;13.438;2023-07-20T10:31:05;2;2;
38451;PMS5003;24231;52.514;13.438;2023-07-20T10:33:34;1;1;
38451;PMS5003;24231;52.514;13.438;2023-07-20T10:36:03;0;0;
38451;PMS5003;24231;52.514;13.438;2023-07-20T10:38:39;0;0;
38451;PMS5003;24231;52.514;13.438;2023-07-20T10:41:16;0;0;
38451;PMS5003;24231;52.514;13.438;2023-07-20T10:43:44;1;1;
38451;PMS5003;24231;52.514;13.438;2023-07-20T10:46:12;1;1;
38451;PMS5003;24231;52.514;13.438;2023-07-20T10:49:12;2;1;
38451;PMS5003;24231;52.514;13.438;2023-07-20T10:51:41;1;1;
38451;PMS5003;24231;52.514;13.438;2023-07-20T10:54:10;1;1;
38451;PMS5003;24231;52.514;13.438;2023-07-20T10:57:21;3;3;
38451;PMS5003;24231;52.514;13.438;2023-07-20T10:59:49;2;2;
38451;PMS5003;24231;52.514;13.438;2023-07-20T11:02:17;1;1;
38451;PMS5003;24231;52.514;13.438;2023-07-20T11:04:45;2;2;
38451;PMS5003;24231;52.514;13.438;2023-07-20T11:07:15;1;1;
38451;PMS5003;24231;52.514;13.438;2023-07-20T11:09:43;0;0;
38451;PMS5003;24231;52.514;13.438;2023-07-20T11:12:11;1;1;
38451;PMS5003;24231;52.514;13.438;2023-07-20T11:14:40;0;0;
38451;PMS5003;24231;52.514;13.438;2023-07-20T11:17:11;0;0;
38451;PMS5003;24231;52.514;13.438;2023-07-20T11:19:40;0;0;
38451;PMS5003;24231;52.514;13.438;2023-07-20T11:22:07;0;0;
38451;PMS5003;24231;52.514;13.438;2023-07-20T11:24:34;2;2;
38451;PMS5003;24231;52.514;13.438;2023-07-20T11:27:05;1;1;
38451;PMS5003;24231;52.514;13.438;2023-07-20T11:29:32;2;2;
38451;PMS5003;24231;52.514;13.438;2023-07-20T11:32:01;13;12;
38451;PMS5003;24231;52.514;13.438;2023-07-20T11:34:29;2;2;
38451;PMS5003;24231;52.514;13.438;2023-07-20T11:36:57;3;1;
38451;PMS5003;24231;52.514;13.438;2023-07-20T11:39:25;0;0;
38451;PMS5003;24231;52.514;13.438;2023-07-20T11:41:53;3;3;
38451;PMS5003;24231;52.514;13.438;2023-07-20T11:44:22;3;2;
38451;PMS5003;24231;52.514;13.438;2023-07-20T11:46:50;3;1;
38451;PMS5003;24231;52.514;13.438;2023-07-20T11:49:17;6;3;
38451;PMS5003;24231;52.514;13.438;2023-07-20T11:51:44;1;1;
38451;PMS5003;24231;52.514;13.438;2023-07-20T11:54:12;0;0;
38451;PMS5003;24231;52.514;13.438;2023-07-20T11:56:41;3;3;
38451;PMS5003;24231;52.514;13.438;2023-07-20T11:59:08;2;2;
38451;PMS5003;24231;52.514;13.438;2023-07-20T12:01:35;1;1;
38451;PMS5003;24231;52.514;13.438;2023-07-20T12:04:02;2;2;
38451;PMS5003;24231;52.514;13.438;2023-07-20T12:06:30;2;1;
38451;PMS5003;24231;52.514;13.438;2023-07-20T12:08:58;18;15;
38451;PMS5003;24231;52.514;13.438;2023-07-20T12:11:34;9;9;
38451;PMS5003;24231;52.514;13.438;2023-07-20T12:14:02;4;2;
38451;PMS5003;24231;52.514;13.438;2023-07-20T12:16:30;1;1;
38451;PMS5003;24231;52.514;13.438;2023-07-20T12:20:26;0;0;
38451;PMS5003;24231;52.514;13.438;2023-07-20T12:23:34;0;0;
38451;PMS5003;24231;52.514;13.438;2023-07-20T12:26:02;0;0;
38451;PMS5003;24231;52.514;13.438;2023-07-20T12:28:29;0;0;
38451;PMS5003;24231;52.514;13.438;2023-07-20T12:30:56;19;19;
38451;PMS5003;24231;52.514;13.438;2023-07-20T12:33:23;0;0;
38451;PMS5003;24231;52.514;13.438;2023-07-20T12:35:53;1;1;
38451;PMS5003;24231;52.514;13.438;2023-07-20T12:38:21;0;0;
38451;PMS5003;24231;52.514;13.438;2023-07-20T12:41:03;0;0;
38451;PMS5003;24231;52.514;13.438;2023-07-20T12:43:30;0;0;
38451;PMS5003;24231;52.514;13.438;2023-07-20T12:46:37;0;0;
38451;PMS5003;24231;52.514;13.438;2023-07-20T12:49:04;1;1;
38451;PMS5003;24231;52.514;13.438;2023-07-20T12:51:31;2;2;
38451;PMS5003;24231;52.514;13.438;2023-07-20T12:53:58;0;0;
38451;PMS5003;24231;52.514;13.438;2023-07-20T12:56:25;1;1;
38451;PMS5003;24231;52.514;13.438;2023-07-20T12:58:52;0;0;
38451;PMS5003;24231;52.514;13.438;2023-07-20T13:01:19;0;0;
38451;PMS5003;24231;52.514;13.438;2023-07-20T13:03:45;0;0;
38451;PMS5003;24231;52.514;13.438;2023-07-20T13:06:12;0;0;
38451;PMS5003;24231;52.514;13.438;2023-07-20T13:08:39;0;0;
38451;PMS5003;24231;52.514;13.438;2023-07-20T13:11:06;0;0;
38451;PMS5003;24231;52.514;13.438;2023-07-20T13:13:33;0;0;
38451;PMS5003;24231;52.514;13.438;2023-07-20T13:16:00;0;0;
38451;PMS5003;24231;52.514;13.438;2023-07-20T13:18:26;2;1;
38451;PMS5003;24231;52.514;13.438;2023-07-20T13:20:54;0;0;
38451;PMS5003;24231;52.514;13.438;2023-07-20T13:23:21;1;1;
38451;PMS5003;24231;52.514;13.438;2023-07-20T13:25:48;0;0;
38451;PMS5003;24231;52.514;13.438;2023-07-20T13:28:16;0;0;
38451;PMS5003;24231;52.514;13.438;2023-07-20T13:30:43;0;0;
38451;PMS5003;24231;52.514;13.438;2023-07-20T13:33:09;0;0;
38451;PMS5003;24231;52.514;13.438;2023-07-20T13:35:36;0;0;
38451;PMS5003;24231;52.514;13.438;2023-07-20T13:38:03;0;0;
38451;PMS5003;24231;52.514;13.438;2023-07-20T13:40:30;0;0;
38451;PMS5003;24231;52.514;13.438;2023-07-20T13:42:57;0;0;
38451;PMS5003;24231;52.514;13.438;2023-07-20T13:45:24;1;1;
38451;PMS5003;24231;52.514;13.438;2023-07-20T13:47:51;1;1;
38451;PMS5003;24231;52.514;13.438;2023-07-20T13:50:18;3;3;
38451;PMS5003;24231;52.514;13.438;2023-07-20T13:52:45;1;1;
38451;PMS5003;24231;52.514;13.438;2023-07-20T13:55:12;0;0;
38451;PMS5003;24231;52.514;13.438;2023-07-20T13:57:39;2;1;
38451;PMS5003;24231;52.514;13.438;2023-07-20T14:00:06;0;0;
38451;PMS5003;24231;52.514;13.438;2023-07-20T14:02:35;0;0;
38451;PMS5003;24231;52.514;13.438;2023-07-20T14:05:01;2;0;
38451;PMS5003;24231;52.514;13.438;2023-07-20T14:07:29;0;0;
38451;PMS5003;24231;52.514;13.438;2023-07-20T14:09:56;0;0;
38451;PMS5003;24231;52.514;13.438;2023-07-20T14:12:23;0;0;
38451;PMS5003;24231;52.514;13.438;2023-07-20T14:14:50;2;1;
38451;PMS5003;24231;52.514;13.438;2023-07-20T14:17:17;0;0;
38451;PMS5003;24231;52.514;13.438;2023-07-20T14:19:45;0;0;
38451;PMS5003;24231;52.514;13.438;2023-07-20T14:22:12;3;2;
38451;PMS5003;24231;52.514;13.438;2023-07-20T14:24:38;0;0;
38451;PMS5003;24231;52.514;13.438;2023-07-20T14:27:06;10;9;
38451;PMS5003;24231;52.514;13.438;2023-07-20T14:29:33;2;2;
38451;PMS5003;24231;52.514;13.438;2023-07-20T14:32:01;0;0;
38451;PMS5003;24231;52.514;13.438;2023-07-20T14:34:29;0;0;
38451;PMS5003;24231;52.514;13.438;2023-07-20T14:36:58;1;1;
38451;PMS5003;24231;52.514;13.438;2023-07-20T14:39:26;0;0;
38451;PMS5003;24231;52.514;13.438;2023-07-20T14:41:54;1;1;
38451;PMS5003;24231;52.514;13.438;2023-07-20T14:44:20;0;0;
38451;PMS5003;24231;52.514;13.438;2023-07-20T14:46:47;0;0;
38451;PMS5003;24231;52.514;13.438;2023-07-20T14:49:14;1;1;
38451;PMS5003;24231;52.514;13.438;2023-07-20T14:51:41;0;0;
38451;PMS5003;24231;52.514;13.438;2023-07-20T14:54:08;0;0;
38451;PMS5003;24231;52.514;13.438;2023-07-20T14:56:37;0;0;
38451;PMS5003;24231;52.514;13.438;2023-07-20T14:59:05;0;0;
38451;PMS5003;24231;52.514;13.438;2023-07-20T15:01:33;4;1;
38451;PMS5003;24231;52.514;13.438;2023-07-20T15:03:59;1;1;
38451;PMS5003;24231;52.514;13.438;2023-07-20T15:06:36;0;0;
38451;PMS5003;24231;52.514;13.438;2023-07-20T15:09:03;2;1;
38451;PMS5003;24231;52.514;13.438;2023-07-20T15:11:30;1;1;
38451;PMS5003;24231;52.514;13.438;2023-07-20T15:13:57;2;1;
38451;PMS5003;24231;52.514;13.438;2023-07-20T15:16:24;1;1;
38451;PMS5003;24231;52.514;13.438;2023-07-20T15:18:51;2;2;
38451;PMS5003;24231;52.514;13.438;2023-07-20T15:21:19;1;1;
38451;PMS5003;24231;52.514;13.438;2023-07-20T15:23:46;0;0;
38451;PMS5003;24231;52.514;13.438;2023-07-20T15:26:13;0;0;
38451;PMS5003;24231;52.514;13.438;2023-07-20T15:28:40;0;0;
38451;PMS5003;24231;52.514;13.438;2023-07-20T15:31:07;0;0;
38451;PMS5003;24231;52.514;13.438;2023-07-20T15:33:34;1;1;
38451;PMS5003;24231;52.514;13.438;2023-07-20T15:36:01;3;3;
38451;PMS5003;24231;52.514;13.438;2023-07-20T15:38:28;2;2;
38451;PMS5003;24231;52.514;13.438;2023-07-20T15:40:57;1;1;
38451;PMS5003;24231;52.514;13.438;2023-07-20T15:43:25;1;1;
38451;PMS5003;24231;52.514;13.438;2023-07-20T15:45:52;1;1;
38451;PMS5003;24231;52.514;13.438;2023-07-20T15:48:28;0;0;
38451;PMS5003;24231;52.514;13.438;2023-07-20T15:50:54;0;0;
38451;PMS5003;24231;52.514;13.438;2023-07-20T15:53:22;1;0;
38451;PMS5003;24231;52.514;13.438;2023-07-20T15:55:52;0;0;
38451;PMS5003;24231;52.514;13.438;2023-07-20T15:58:29;2;2;
38451;PMS5003;24231;52.514;13.438;2023-07-20T16:00:57;1;1;
38451;PMS5003;24231;52.514;13.438;2023-07-20T16:03:23;1;1;
38451;PMS5003;24231;52.514;13.438;2023-07-20T16:05:52;2;2;
38451;PMS5003;24231;52.514;13.438;2023-07-20T16:08:19;0;0;
38451;PMS5003;24231;52.514;13.438;2023-07-20T16:10:46;1;1;
38451;PMS5003;24231;52.514;13.438;2023-07-20T16:13:13;0;0;
38451;PMS5003;24231;52.514;13.438;2023-07-20T16:15:40;1;1;
38451;PMS5003;24231;52.514;13.438;2023-07-20T16:18:07;3;1;
38451;PMS5003;24231;52.514;13.438;2023-07-20T16:20:34;1;1;
38451;PMS5003;24231;52.514;13.438;2023-07-20T16:23:01;1;1;
38451;PMS5003;24231;52.514;13.438;2023-07-20T16:25:28;1;1;
38451;PMS5003;24231;52.514;13.438;2023-07-20T16:27:55;0;0;
38451;PMS5003;24231;52.514;13.438;2023-07-20T16:30:22;1;1;
38451;PMS5003;24231;52.514;13.438;2023-07-20T16:32:48;0;0;
38451;PMS5003;24231;52.514;13.438;2023-07-20T16:35:16;2;1;
38451;PMS5003;24231;52.514;13.438;2023-07-20T16:37:43;1;1;
38451;PMS5003;24231;52.514;13.438;2023-07-20T16:40:10;2;2;